createdAt,value
2018-07-20T00:01:18.671Z,17.90
2018-07-20T00:03:48.534Z,18.17
2018-07-20T00:06:18.425Z,18.13
2018-07-20T00:08:48.644Z,18.67
2018-07-20T00:11:18.550Z,19.03
2018-07-20T00:13:48.586Z,18.40
2018-07-20T00:16:18.461Z,17.17
2018-07-20T00:18:48.366Z,19.70
2018-07-20T00:21:18.378Z,19.87
2018-07-20T00:23:48.258Z,19.60
2018-07-20T00:26:18.159Z,18.73
2018-07-20T00:28:48.035Z,19.57
2018-07-20T00:31:18.013Z,19.60
2018-07-20T00:33:47.803Z,19.23
2018-07-20T00:36:17.766Z,19.63
2018-07-20T00:38:47.675Z,20.07
2018-07-20T00:41:17.651Z,20.73
2018-07-20T00:43:47.467Z,20.93
2018-07-20T00:46:17.752Z,19.80
2018-07-20T00:48:47.682Z,19.70
2018-07-20T00:51:17.531Z,19.40
2018-07-20T00:53:47.441Z,18.53
2018-07-20T00:56:17.344Z,18.00
2018-07-20T00:58:47.363Z,18.17
2018-07-20T01:01:17.296Z,18.57
2018-07-20T01:03:47.192Z,18.03
2018-07-20T01:06:17.029Z,18.07
2018-07-20T01:08:46.907Z,19.13
2018-07-20T01:11:16.710Z,18.80
2018-07-20T01:13:46.636Z,18.60
2018-07-20T01:16:16.536Z,18.30
2018-07-20T01:18:46.533Z,17.27
2018-07-20T01:21:16.520Z,17.50
2018-07-20T01:23:46.397Z,17.43
2018-07-20T01:26:16.312Z,17.37
2018-07-20T01:28:46.252Z,17.67
2018-07-20T01:31:16.171Z,18.07
2018-07-20T01:33:46.151Z,18.80
2018-07-20T01:36:16.103Z,18.90
2018-07-20T01:38:46.084Z,18.40
2018-07-20T01:41:16.017Z,17.40
2018-07-20T01:43:45.815Z,18.03
2018-07-20T01:46:15.744Z,17.13
2018-07-20T01:48:45.643Z,16.30
2018-07-20T01:51:15.603Z,16.63
2018-07-20T01:53:45.475Z,15.80
2018-07-20T01:56:15.476Z,15.70
2018-07-20T01:58:45.371Z,16.63
2018-07-20T02:01:15.364Z,17.07
2018-07-20T02:03:45.210Z,16.80
2018-07-20T02:06:15.260Z,16.97
2018-07-20T02:08:45.234Z,16.17
2018-07-20T02:11:15.108Z,16.17
2018-07-20T02:13:44.983Z,16.37
2018-07-20T02:16:14.847Z,16.57
2018-07-20T02:18:44.753Z,15.63
2018-07-20T02:21:14.664Z,15.30
2018-07-20T02:23:44.647Z,16.27
2018-07-20T02:26:14.528Z,15.67
2018-07-20T02:28:44.424Z,16.70
2018-07-20T02:31:14.428Z,16.93
2018-07-20T02:33:44.264Z,16.90
2018-07-20T02:36:14.136Z,16.40
2018-07-20T02:38:43.988Z,16.40
2018-07-20T02:41:13.927Z,15.90
2018-07-20T02:43:43.872Z,15.70
2018-07-20T02:46:13.882Z,17.07
2018-07-20T02:48:43.767Z,16.73
2018-07-20T02:51:13.662Z,17.07
2018-07-20T02:53:43.539Z,17.77
2018-07-20T02:56:13.331Z,17.53
2018-07-20T02:58:43.235Z,16.23
2018-07-20T03:01:13.144Z,17.53
2018-07-20T03:03:43.022Z,17.33
2018-07-20T03:06:12.895Z,19.23
2018-07-20T03:08:42.892Z,19.33
2018-07-20T03:11:12.784Z,19.07
2018-07-20T03:13:42.779Z,19.60
2018-07-20T03:16:12.716Z,19.30
2018-07-20T03:18:42.583Z,19.70
2018-07-20T03:21:12.489Z,19.40
2018-07-20T03:23:42.315Z,20.07
2018-07-20T03:26:12.223Z,19.53
2018-07-20T03:28:42.104Z,20.33
2018-07-20T03:31:12.007Z,20.53
2018-07-20T03:33:41.897Z,19.57
2018-07-20T03:36:11.803Z,20.20
2018-07-20T03:38:41.680Z,20.13
2018-07-20T03:41:11.479Z,19.50
2018-07-20T03:43:41.343Z,19.47
2018-07-20T03:46:11.198Z,18.97
2018-07-20T03:48:41.124Z,19.27
2018-07-20T03:51:10.959Z,19.50
2018-07-20T03:53:40.957Z,19.87
2018-07-20T03:56:11.606Z,18.57
2018-07-20T03:58:41.573Z,19.17
2018-07-20T04:01:11.457Z,19.20
2018-07-20T04:03:41.397Z,18.37
2018-07-20T04:06:11.199Z,17.73
2018-07-20T04:08:40.990Z,17.80
2018-07-20T04:11:10.824Z,17.33
2018-07-20T04:13:40.663Z,17.53
2018-07-20T04:16:10.639Z,17.23
2018-07-20T04:18:40.572Z,19.20
2018-07-20T04:21:10.628Z,18.93
2018-07-20T04:23:40.515Z,16.80
2018-07-20T04:26:10.403Z,17.20
2018-07-20T04:28:40.260Z,18.43
2018-07-20T04:31:10.167Z,17.23
2018-07-20T04:33:40.025Z,16.57
2018-07-20T04:36:09.865Z,16.07
2018-07-20T04:38:39.832Z,17.63
2018-07-20T04:41:09.745Z,17.27
2018-07-20T04:43:39.796Z,17.47
2018-07-20T04:46:09.628Z,16.73
2018-07-20T04:48:39.499Z,16.87
2018-07-20T04:51:09.367Z,17.03
2018-07-20T04:53:39.373Z,17.37
2018-07-20T04:56:09.292Z,18.00
2018-07-20T04:58:39.138Z,17.17
2018-07-20T05:01:09.013Z,17.07
2018-07-20T05:03:38.889Z,17.13
2018-07-20T05:06:08.814Z,18.07
2018-07-20T05:08:39.040Z,16.77
2018-07-20T05:11:08.909Z,17.00
2018-07-20T05:13:38.887Z,16.03
2018-07-20T05:16:08.832Z,16.70
2018-07-20T05:18:38.717Z,12.80
2018-07-20T05:21:08.644Z,18.17
2018-07-20T05:23:38.941Z,18.07
2018-07-20T05:26:08.857Z,16.07
2018-07-20T05:28:38.655Z,16.13
2018-07-20T05:31:08.596Z,16.73
2018-07-20T05:33:38.505Z,12.37
2018-07-20T05:36:08.407Z,14.90
2018-07-20T05:38:38.360Z,15.27
2018-07-20T05:41:08.333Z,12.93
2018-07-20T05:43:38.134Z,15.13
2018-07-20T05:46:08.069Z,13.80
2018-07-20T05:48:38.008Z,14.43
2018-07-20T05:51:08.075Z,14.77
2018-07-20T05:53:37.956Z,14.53
2018-07-20T05:56:07.855Z,14.20
2018-07-20T05:58:37.754Z,15.57
2018-07-20T06:01:07.693Z,13.80
2018-07-20T06:03:37.749Z,13.20
2018-07-20T06:06:07.649Z,14.13
2018-07-20T06:08:37.697Z,14.90
2018-07-20T06:11:07.801Z,12.20
2018-07-20T06:13:37.667Z,14.90
2018-07-20T06:16:07.479Z,14.87
2018-07-20T06:18:37.573Z,12.93
2018-07-20T06:21:08.055Z,12.27
2018-07-20T06:23:37.940Z,13.07
2018-07-20T06:26:07.817Z,13.90
2018-07-20T06:28:37.710Z,14.00
2018-07-20T06:31:07.656Z,13.90
2018-07-20T06:33:37.525Z,11.93
2018-07-20T06:36:07.399Z,12.63
2018-07-20T06:38:37.334Z,13.10
2018-07-20T06:41:07.316Z,13.03
2018-07-20T06:43:37.147Z,12.13
2018-07-20T06:46:07.046Z,12.40
2018-07-20T06:48:36.981Z,12.20
2018-07-20T06:51:06.943Z,11.63
2018-07-20T06:53:36.919Z,13.87
2018-07-20T06:56:07.008Z,12.20
2018-07-20T06:58:37.044Z,11.20
2018-07-20T07:01:07.240Z,12.53
2018-07-20T07:03:37.400Z,12.33
2018-07-20T07:06:07.196Z,11.80
2018-07-20T07:08:37.105Z,10.90
2018-07-20T07:11:07.267Z,10.97
2018-07-20T07:13:37.070Z,10.70
2018-07-20T07:16:07.370Z,9.63
2018-07-20T07:18:37.351Z,10.27
2018-07-20T07:21:07.497Z,10.27
2018-07-20T07:23:37.388Z,10.23
2018-07-20T07:26:07.450Z,10.43
2018-07-20T07:28:37.302Z,9.80
2018-07-20T07:31:07.762Z,8.87
2018-07-20T07:33:37.622Z,9.90
2018-07-20T07:36:07.467Z,10.27
2018-07-20T07:38:37.396Z,10.27
2018-07-20T07:41:07.294Z,9.67
2018-07-20T07:43:37.357Z,9.27
2018-07-20T07:46:07.247Z,9.20
2018-07-20T07:48:37.299Z,9.17
2018-07-20T07:51:07.264Z,8.37
2018-07-20T07:53:37.163Z,9.80
2018-07-20T07:56:07.008Z,9.00
2018-07-20T07:58:36.923Z,9.40
2018-07-20T08:01:06.791Z,9.60
2018-07-20T08:03:36.760Z,8.87
2018-07-20T08:06:06.780Z,5.40
2018-07-20T08:08:36.668Z,8.70
2018-07-20T08:11:06.805Z,8.43
2018-07-20T08:13:36.744Z,7.93
2018-07-20T08:16:06.643Z,8.30
2018-07-20T08:18:36.544Z,7.60
2018-07-20T08:21:06.360Z,8.33
2018-07-20T08:23:36.222Z,9.03
2018-07-20T08:26:06.293Z,8.47
2018-07-20T08:28:36.184Z,9.00
2018-07-20T08:31:06.160Z,8.40
2018-07-20T08:33:36.027Z,8.27
2018-07-20T08:36:05.968Z,8.83
2018-07-20T08:38:35.880Z,8.63
2018-07-20T08:41:05.940Z,9.23
2018-07-20T08:43:35.831Z,8.47
2018-07-20T08:46:05.623Z,7.13
2018-07-20T08:48:35.475Z,7.90
2018-07-20T08:51:05.416Z,7.70
2018-07-20T08:53:35.232Z,6.97
2018-07-20T08:56:05.262Z,8.53
2018-07-20T08:58:35.132Z,7.17
2018-07-20T09:01:04.938Z,6.53
2018-07-20T09:03:34.864Z,7.33
2018-07-20T09:06:04.755Z,6.70
2018-07-20T09:08:34.665Z,8.17
2018-07-20T09:11:04.638Z,8.23
2018-07-20T09:13:34.691Z,8.07
2018-07-20T09:16:04.507Z,8.97
2018-07-20T09:18:34.385Z,8.13
2018-07-20T09:21:04.364Z,7.60
2018-07-20T09:23:34.213Z,6.87
2018-07-20T09:26:04.200Z,7.70
2018-07-20T09:28:34.086Z,8.53
2018-07-20T09:31:03.981Z,7.97
2018-07-20T09:33:33.827Z,7.17
2018-07-20T09:36:03.686Z,6.60
2018-07-20T09:38:33.551Z,7.30
2018-07-20T09:41:03.459Z,7.63
2018-07-20T09:43:33.440Z,6.83
2018-07-20T09:46:03.294Z,7.33
2018-07-20T09:48:33.129Z,6.50
2018-07-20T09:51:02.964Z,6.70
2018-07-20T09:53:32.863Z,6.20
2018-07-20T09:56:02.777Z,7.27
2018-07-20T09:58:32.653Z,7.33
2018-07-20T10:01:02.451Z,7.53
2018-07-20T10:03:35.191Z,6.97
2018-07-20T10:06:05.532Z,6.90
2018-07-20T10:08:35.407Z,7.57
2018-07-20T10:11:05.369Z,4.90
2018-07-20T10:13:35.331Z,6.90
2018-07-20T10:16:05.246Z,6.40
2018-07-20T10:18:35.224Z,5.90
2018-07-20T10:21:05.336Z,7.20
2018-07-20T10:23:35.239Z,6.97
2018-07-20T10:26:05.220Z,5.37
2018-07-20T10:28:41.201Z,7.00
2018-07-20T10:31:11.122Z,5.20
2018-07-20T10:33:40.989Z,5.33
2018-07-20T10:36:10.895Z,6.50
2018-07-20T10:38:40.807Z,6.67
2018-07-20T10:41:10.659Z,6.47
2018-07-20T10:43:40.494Z,6.10
2018-07-20T10:46:10.428Z,6.80
2018-07-20T10:48:40.431Z,6.67
2018-07-20T10:51:10.255Z,5.80
2018-07-20T10:53:40.103Z,5.93
2018-07-20T10:56:09.935Z,6.37
2018-07-20T10:58:39.840Z,6.53
2018-07-20T11:01:09.655Z,6.57
2018-07-20T11:03:39.408Z,6.53
2018-07-20T11:06:09.307Z,6.53
2018-07-20T11:08:39.152Z,5.30
2018-07-20T11:11:09.603Z,7.53
2018-07-20T11:13:39.564Z,6.60
2018-07-20T11:16:09.490Z,7.07
2018-07-20T11:18:39.323Z,6.60
2018-07-20T11:21:09.157Z,6.90
2018-07-20T11:23:39.009Z,6.80
2018-07-20T11:26:09.325Z,6.70
2018-07-20T11:28:39.211Z,7.80
2018-07-20T11:31:09.096Z,5.47
2018-07-20T11:33:38.922Z,6.50
2018-07-20T11:36:08.892Z,6.10
2018-07-20T11:38:38.826Z,6.70
2018-07-20T11:41:08.719Z,5.40
2018-07-20T11:43:38.683Z,6.33
2018-07-20T11:46:08.613Z,6.67
2018-07-20T11:48:38.487Z,6.13
2018-07-20T11:51:08.383Z,5.87
2018-07-20T11:53:38.359Z,6.13
2018-07-20T11:56:08.227Z,5.80
2018-07-20T11:58:38.289Z,6.73
2018-07-20T12:01:08.243Z,6.50
2018-07-20T12:03:38.046Z,6.27
2018-07-20T12:06:07.879Z,6.40
2018-07-20T12:08:37.732Z,6.20
2018-07-20T12:11:07.882Z,6.70
2018-07-20T12:13:37.755Z,6.20
2018-07-20T12:16:07.693Z,6.23
2018-07-20T12:18:37.562Z,6.63
2018-07-20T12:21:07.651Z,6.47
2018-07-20T12:23:37.567Z,7.77
2018-07-20T12:26:07.350Z,6.63
2018-07-20T12:28:37.231Z,5.63
2018-07-20T12:31:07.088Z,5.73
2018-07-20T12:33:37.008Z,5.33
2018-07-20T12:36:07.419Z,6.23
2018-07-20T12:38:37.301Z,4.77
2018-07-20T12:41:07.220Z,5.53
2018-07-20T12:43:37.090Z,5.27
2018-07-20T12:46:07.043Z,5.90
2018-07-20T12:48:36.940Z,5.67
2018-07-20T12:51:07.304Z,5.77
2018-07-20T12:53:37.237Z,6.27
2018-07-20T12:56:07.098Z,6.20
2018-07-20T12:58:37.088Z,5.23
2018-07-20T13:01:06.972Z,5.93
2018-07-20T13:03:36.831Z,6.60
2018-07-20T13:06:06.742Z,6.90
2018-07-20T13:08:36.602Z,5.80
2018-07-20T13:11:06.513Z,5.80
2018-07-20T13:13:36.384Z,6.33
2018-07-20T13:16:06.329Z,6.27
2018-07-20T13:18:36.237Z,5.90
2018-07-20T13:21:06.026Z,6.43
2018-07-20T13:23:35.923Z,6.83
2018-07-20T13:26:06.109Z,6.47
2018-07-20T13:28:35.863Z,6.23
2018-07-20T13:31:05.690Z,6.10
2018-07-20T13:33:35.580Z,5.97
2018-07-20T13:36:05.547Z,6.73
2018-07-20T13:38:35.338Z,6.67
2018-07-20T13:41:05.277Z,6.27
2018-07-20T13:43:35.146Z,5.90
2018-07-20T13:46:04.935Z,5.90
2018-07-20T13:48:34.843Z,6.47
2018-07-20T13:51:04.743Z,5.33
2018-07-20T13:53:34.563Z,6.60
2018-07-20T13:56:04.583Z,6.00
2018-07-20T13:58:34.451Z,6.03
2018-07-20T14:01:04.336Z,5.57
2018-07-20T14:03:34.255Z,6.00
2018-07-20T14:06:04.153Z,6.20
2018-07-20T14:08:34.013Z,6.37
2018-07-20T14:11:04.163Z,6.77
2018-07-20T14:13:33.944Z,6.53
2018-07-20T14:16:03.812Z,7.30
2018-07-20T14:18:33.634Z,7.20
2018-07-20T14:21:03.474Z,5.77
2018-07-20T14:23:33.390Z,7.70
2018-07-20T14:26:03.309Z,7.00
2018-07-20T14:28:33.176Z,7.40
2018-07-20T14:31:03.072Z,7.90
2018-07-20T14:33:32.870Z,8.00
2018-07-20T14:36:02.780Z,6.47
2018-07-20T14:38:32.660Z,7.87
2018-07-20T14:41:02.551Z,8.27
2018-07-20T14:43:32.388Z,7.90
2018-07-20T14:46:02.241Z,7.23
2018-07-20T14:48:32.164Z,7.67
2018-07-20T14:51:02.006Z,7.10
2018-07-20T14:53:31.831Z,7.37
2018-07-20T14:56:01.666Z,7.57
2018-07-20T14:58:31.479Z,7.67
2018-07-20T15:01:01.434Z,6.43
2018-07-20T15:03:31.264Z,7.93
2018-07-20T15:06:01.116Z,8.33
2018-07-20T15:08:30.962Z,7.73
2018-07-20T15:11:01.671Z,8.10
2018-07-20T15:13:31.533Z,6.73
2018-07-20T15:16:01.325Z,7.50
2018-07-20T15:18:31.079Z,7.20
2018-07-20T15:21:00.827Z,7.93
2018-07-20T15:23:30.671Z,7.70
2018-07-20T15:26:00.433Z,7.53
2018-07-20T15:28:30.295Z,6.90
2018-07-20T15:31:00.112Z,6.90
2018-07-20T15:33:30.009Z,7.67
2018-07-20T15:35:59.833Z,6.37
2018-07-20T15:38:29.648Z,7.37
2018-07-20T15:40:59.439Z,7.03
2018-07-20T15:43:29.409Z,6.63
2018-07-20T15:46:05.967Z,5.87
2018-07-20T15:48:29.064Z,5.77
2018-07-20T15:50:58.940Z,6.27
2018-07-20T15:53:36.284Z,6.63
2018-07-20T15:55:58.707Z,5.87
2018-07-20T15:58:28.815Z,6.03
2018-07-20T16:00:58.616Z,5.50
2018-07-20T16:03:28.448Z,6.47
2018-07-20T16:05:58.332Z,5.13
2018-07-20T16:08:28.187Z,5.40
2018-07-20T16:10:57.988Z,5.70
2018-07-20T16:13:27.858Z,5.13
2018-07-20T16:15:57.672Z,5.10
2018-07-20T16:18:27.575Z,4.90
2018-07-20T16:20:57.447Z,4.73
2018-07-20T16:23:27.343Z,5.53
2018-07-20T16:25:57.249Z,5.17
2018-07-20T16:28:27.012Z,5.27
2018-07-20T16:30:56.842Z,5.23
2018-07-20T16:33:26.833Z,4.37
2018-07-20T16:35:56.678Z,5.13
2018-07-20T16:38:26.510Z,5.03
2018-07-20T16:40:56.660Z,5.50
2018-07-20T16:43:26.468Z,4.90
2018-07-20T16:45:56.318Z,4.73
2018-07-20T16:48:26.096Z,5.53
2018-07-20T16:50:56.017Z,5.00
2018-07-20T16:53:25.809Z,5.07
2018-07-20T16:55:55.579Z,5.07
2018-07-20T16:58:25.433Z,5.30
2018-07-20T17:00:55.479Z,5.43
2018-07-20T17:03:25.271Z,5.43
2018-07-20T17:05:55.047Z,5.90
2018-07-20T17:08:24.848Z,5.43
2018-07-20T17:10:54.723Z,4.30
2018-07-20T17:13:24.496Z,5.30
2018-07-20T17:15:54.555Z,4.70
2018-07-20T17:18:24.395Z,5.40
2018-07-20T17:20:54.291Z,5.30
2018-07-20T17:23:24.182Z,4.70
2018-07-20T17:25:54.112Z,5.83
2018-07-20T17:28:23.943Z,5.17
2018-07-20T17:30:53.776Z,4.73
2018-07-20T17:33:23.649Z,5.20
2018-07-20T17:35:53.528Z,4.80
2018-07-20T17:38:23.543Z,5.30
2018-07-20T17:40:53.356Z,5.67
2018-07-20T17:43:23.514Z,5.50
2018-07-20T17:45:53.411Z,5.03
2018-07-20T17:48:23.326Z,5.10
2018-07-20T17:50:53.164Z,4.97
2018-07-20T17:53:23.136Z,5.80
2018-07-20T17:55:53.033Z,5.50
2018-07-20T17:58:29.255Z,5.67
2018-07-20T18:00:59.061Z,5.33
2018-07-20T18:03:28.816Z,6.60
2018-07-20T18:05:58.684Z,5.20
2018-07-20T18:08:28.476Z,5.53
2018-07-20T18:10:58.463Z,6.10
2018-07-20T18:13:28.312Z,6.70
2018-07-20T18:15:58.225Z,6.20
2018-07-20T18:18:28.028Z,6.07
2018-07-20T18:20:57.836Z,6.53
2018-07-20T18:23:27.700Z,8.33
2018-07-20T18:25:57.561Z,7.73
2018-07-20T18:28:27.464Z,9.37
2018-07-20T18:30:57.299Z,9.57
2018-07-20T18:33:27.247Z,10.37
2018-07-20T18:35:57.156Z,9.80
2018-07-20T18:38:27.047Z,8.53
2018-07-20T18:40:56.900Z,10.83
2018-07-20T18:43:26.662Z,10.10
2018-07-20T18:45:56.548Z,10.20
2018-07-20T18:48:26.413Z,8.53
2018-07-20T18:50:56.259Z,6.60
2018-07-20T18:53:26.083Z,7.37
2018-07-20T18:55:55.995Z,8.03
2018-07-20T18:58:26.042Z,8.27
2018-07-20T19:00:55.889Z,7.67
2018-07-20T19:03:25.860Z,7.33
2018-07-20T19:05:55.732Z,7.63
2018-07-20T19:08:25.707Z,7.27
2018-07-20T19:10:55.548Z,7.57
2018-07-20T19:13:25.445Z,7.23
2018-07-20T19:15:55.241Z,7.77
2018-07-20T19:18:25.051Z,7.33
2018-07-20T19:20:54.903Z,7.13
2018-07-20T19:23:24.679Z,6.67
2018-07-20T19:25:54.435Z,7.47
2018-07-20T19:28:24.176Z,7.60
2018-07-20T19:30:54.060Z,8.40
2018-07-20T19:33:23.883Z,7.50
2018-07-20T19:35:53.802Z,7.70
2018-07-20T19:38:23.643Z,7.50
2018-07-20T19:40:53.676Z,8.03
2018-07-20T19:43:23.466Z,7.50
2018-07-20T19:45:53.319Z,7.20
2018-07-20T19:48:23.135Z,7.10
2018-07-20T19:50:52.961Z,7.17
2018-07-20T19:53:22.852Z,7.57
2018-07-20T19:55:52.684Z,7.03
2018-07-20T19:58:22.483Z,7.80
2018-07-20T20:00:52.295Z,7.80
2018-07-20T20:03:22.216Z,7.40
2018-07-20T20:05:51.995Z,6.80
2018-07-20T20:08:21.843Z,7.40
2018-07-20T20:10:51.764Z,7.87
2018-07-20T20:13:21.542Z,5.90
2018-07-20T20:15:51.489Z,6.63
2018-07-20T20:18:21.292Z,6.40
2018-07-20T20:20:51.125Z,6.73
2018-07-20T20:23:21.039Z,6.50
2018-07-20T20:25:50.920Z,6.47
2018-07-20T20:28:20.725Z,6.90
2018-07-20T20:30:50.505Z,6.73
2018-07-20T20:33:20.405Z,6.47
2018-07-20T20:35:50.335Z,6.87
2018-07-20T20:38:20.292Z,6.77
2018-07-20T20:40:50.084Z,6.70
2018-07-20T20:43:19.964Z,5.93
2018-07-20T20:45:49.842Z,6.20
2018-07-20T20:48:19.670Z,6.53
2018-07-20T20:50:49.450Z,6.90
2018-07-20T20:53:19.337Z,6.63
2018-07-20T20:55:49.256Z,6.53
2018-07-20T20:58:19.209Z,6.10
2018-07-20T21:00:49.154Z,6.23
2018-07-20T21:03:19.009Z,6.43
2018-07-20T21:05:48.899Z,6.47
2018-07-20T21:08:18.712Z,6.70
2018-07-20T21:10:48.680Z,6.07
2018-07-20T21:13:18.535Z,6.30
2018-07-20T21:15:48.369Z,6.67
2018-07-20T21:18:18.203Z,6.43
2018-07-20T21:20:48.105Z,6.73
2018-07-20T21:23:18.006Z,6.50
2018-07-20T21:25:47.900Z,6.07
2018-07-20T21:28:17.749Z,6.20
2018-07-20T21:30:47.603Z,6.17
2018-07-20T21:33:17.606Z,6.90
2018-07-20T21:35:47.364Z,5.83
2018-07-20T21:38:17.187Z,6.33
2018-07-20T21:40:46.983Z,6.17
2018-07-20T21:43:16.819Z,6.33
2018-07-20T21:45:46.682Z,5.60
2018-07-20T21:48:16.569Z,6.13
2018-07-20T21:50:46.347Z,6.37
2018-07-20T21:53:16.243Z,6.17
2018-07-20T21:55:46.167Z,5.77
2018-07-20T21:58:16.093Z,6.27
2018-07-20T22:00:45.964Z,6.07
2018-07-20T22:03:15.728Z,6.10
2018-07-20T22:05:45.611Z,5.53
2018-07-20T22:08:15.479Z,5.50
2018-07-20T22:10:45.293Z,5.70
2018-07-20T22:13:15.232Z,5.97
2018-07-20T22:15:45.024Z,5.83
2018-07-20T22:18:14.884Z,5.53
2018-07-20T22:20:44.715Z,5.70
2018-07-20T22:23:14.533Z,5.70
2018-07-20T22:25:44.425Z,5.57
2018-07-20T22:28:14.271Z,5.27
2018-07-20T22:30:44.080Z,4.73
2018-07-20T22:33:13.871Z,5.07
2018-07-20T22:35:43.677Z,4.57
2018-07-20T22:38:13.496Z,5.10
2018-07-20T22:40:43.464Z,5.10
2018-07-20T22:43:13.245Z,5.03
2018-07-20T22:45:43.075Z,4.53
2018-07-20T22:48:12.940Z,5.00
2018-07-20T22:50:42.814Z,4.77
2018-07-20T22:53:12.603Z,5.03
2018-07-20T22:55:42.600Z,4.97
2018-07-20T22:58:12.415Z,5.70
2018-07-20T23:00:42.232Z,5.67
2018-07-20T23:03:12.059Z,5.70
2018-07-20T23:05:41.952Z,5.23
2018-07-20T23:08:11.836Z,5.30
2018-07-20T23:10:41.708Z,5.17
2018-07-20T23:13:11.495Z,5.20
2018-07-20T23:15:41.400Z,5.30
2018-07-20T23:18:11.361Z,5.50
2018-07-20T23:20:42.293Z,5.40
2018-07-20T23:23:12.088Z,5.30
2018-07-20T23:25:42.110Z,5.40
2018-07-20T23:28:12.063Z,5.13
2018-07-20T23:30:41.876Z,4.97
2018-07-20T23:33:11.708Z,5.27
2018-07-20T23:35:41.623Z,4.80
2018-07-20T23:38:11.475Z,5.03
2018-07-20T23:40:41.492Z,4.80
2018-07-20T23:43:11.306Z,4.73
2018-07-20T23:45:41.176Z,5.13
2018-07-20T23:48:11.061Z,4.33
2018-07-20T23:50:40.866Z,4.63
2018-07-20T23:53:10.734Z,5.23
2018-07-20T23:55:40.696Z,4.67
2018-07-20T23:58:10.562Z,4.50
